createdAt,value
2022-08-31T00:00:44.581Z,0.00
2022-08-31T00:01:44.646Z,0.00
2022-08-31T00:02:44.560Z,0.00
2022-08-31T00:03:44.569Z,0.00
2022-08-31T00:04:44.598Z,0.00
2022-08-31T00:05:44.555Z,0.00
2022-08-31T00:06:44.572Z,0.00
2022-08-31T00:07:44.539Z,0.00
2022-08-31T00:08:44.521Z,0.00
2022-08-31T00:09:44.526Z,0.00
2022-08-31T00:10:45.098Z,0.00
2022-08-31T00:11:44.651Z,0.00
2022-08-31T00:12:44.506Z,0.00
2022-08-31T00:13:44.486Z,0.00
2022-08-31T00:14:44.480Z,0.00
2022-08-31T00:15:44.472Z,0.00
2022-08-31T00:16:44.586Z,0.00
2022-08-31T00:17:44.460Z,0.00
2022-08-31T00:18:44.450Z,0.00
2022-08-31T00:19:44.446Z,0.00
2022-08-31T00:20:44.441Z,0.00
2022-08-31T00:21:44.887Z,0.00
2022-08-31T00:22:44.414Z,0.00
2022-08-31T00:23:44.414Z,0.00
2022-08-31T00:24:44.403Z,0.00
2022-08-31T00:25:44.390Z,0.00
2022-08-31T00:26:44.419Z,0.00
2022-08-31T00:27:44.391Z,0.00
2022-08-31T00:28:44.371Z,0.00
2022-08-31T00:29:44.369Z,0.00
2022-08-31T00:30:44.354Z,0.00
2022-08-31T00:31:44.407Z,0.00
2022-08-31T00:32:44.335Z,0.00
2022-08-31T00:33:44.342Z,0.00
2022-08-31T00:34:44.321Z,0.00
2022-08-31T00:35:44.314Z,0.00
2022-08-31T00:36:44.334Z,0.00
2022-08-31T00:37:44.302Z,0.00
2022-08-31T00:38:44.289Z,0.00
2022-08-31T00:39:44.283Z,0.00
2022-08-31T00:40:45.120Z,0.00
2022-08-31T00:41:44.298Z,0.00
2022-08-31T00:42:44.265Z,0.00
2022-08-31T00:43:44.248Z,0.00
2022-08-31T00:44:44.244Z,0.00
2022-08-31T00:45:44.351Z,0.00
2022-08-31T00:46:44.257Z,0.00
2022-08-31T00:47:44.216Z,0.00
2022-08-31T00:48:44.247Z,0.00
2022-08-31T00:49:44.202Z,0.00
2022-08-31T00:50:44.197Z,0.00
2022-08-31T00:51:44.225Z,0.00
2022-08-31T00:52:44.192Z,0.00
2022-08-31T00:53:44.192Z,0.00
2022-08-31T00:54:44.170Z,0.00
2022-08-31T00:55:44.167Z,0.00
2022-08-31T00:56:44.200Z,0.00
2022-08-31T00:57:44.165Z,0.00
2022-08-31T00:58:44.140Z,0.00
2022-08-31T00:59:44.129Z,0.00
2022-08-31T01:00:44.153Z,0.00
2022-08-31T01:01:44.191Z,0.00
2022-08-31T01:02:44.135Z,0.00
2022-08-31T01:03:44.097Z,0.00
2022-08-31T01:04:44.093Z,0.00
2022-08-31T01:05:44.079Z,0.00
2022-08-31T01:06:44.075Z,0.00
2022-08-31T01:07:44.102Z,0.00
2022-08-31T01:08:44.075Z,0.00
2022-08-31T01:09:52.684Z,0.00
2022-08-31T01:10:45.038Z,0.00
2022-08-31T01:11:44.031Z,0.00
2022-08-31T01:12:44.070Z,0.00
2022-08-31T01:13:44.085Z,0.00
2022-08-31T01:14:44.009Z,0.00
2022-08-31T01:15:44.013Z,0.00
2022-08-31T01:16:44.043Z,0.00
2022-08-31T01:17:44.017Z,0.00
2022-08-31T01:18:43.976Z,0.00
2022-08-31T01:19:43.981Z,0.00
2022-08-31T01:20:48.805Z,0.00
2022-08-31T01:21:44.956Z,0.00
2022-08-31T01:22:43.994Z,0.00
2022-08-31T01:23:43.957Z,0.00
2022-08-31T01:24:43.956Z,0.00
2022-08-31T01:25:43.922Z,0.00
2022-08-31T01:26:43.941Z,0.00
2022-08-31T01:27:44.936Z,0.00
2022-08-31T01:28:43.897Z,0.00
2022-08-31T01:29:43.900Z,0.00
2022-08-31T01:30:43.887Z,0.00
2022-08-31T01:31:43.988Z,0.00
2022-08-31T01:32:43.895Z,0.00
2022-08-31T01:33:43.847Z,0.00
2022-08-31T01:34:44.853Z,0.00
2022-08-31T01:35:43.865Z,0.00
2022-08-31T01:36:43.849Z,0.00
2022-08-31T01:37:43.865Z,0.00
2022-08-31T01:38:43.824Z,0.00
2022-08-31T01:39:43.817Z,0.00
2022-08-31T01:40:43.879Z,0.00
2022-08-31T01:41:43.797Z,0.00
2022-08-31T01:42:43.823Z,0.00
2022-08-31T01:43:43.776Z,0.00
2022-08-31T01:44:43.834Z,0.00
2022-08-31T01:45:43.770Z,0.00
2022-08-31T01:46:43.829Z,0.00
2022-08-31T01:47:43.777Z,0.00
2022-08-31T01:48:43.740Z,0.00
2022-08-31T01:49:43.745Z,0.00
2022-08-31T01:50:43.731Z,0.00
2022-08-31T01:51:43.720Z,0.00
2022-08-31T01:52:43.735Z,0.00
2022-08-31T01:53:45.820Z,0.00
2022-08-31T01:54:43.694Z,0.00
2022-08-31T01:55:43.695Z,0.00
2022-08-31T01:56:43.685Z,0.00
2022-08-31T01:57:43.704Z,0.00
2022-08-31T01:58:45.135Z,0.00
2022-08-31T01:59:43.675Z,0.00
2022-08-31T02:00:43.686Z,0.00
2022-08-31T02:01:43.846Z,0.00
2022-08-31T02:02:43.713Z,0.00
2022-08-31T02:03:43.672Z,0.00
2022-08-31T02:04:43.621Z,0.00
2022-08-31T02:05:43.607Z,0.00
2022-08-31T02:06:43.603Z,0.00
2022-08-31T02:07:43.613Z,0.00
2022-08-31T02:08:43.583Z,0.00
2022-08-31T02:09:43.575Z,0.00
2022-08-31T02:10:43.569Z,0.00
2022-08-31T02:11:43.572Z,0.00
2022-08-31T02:12:43.576Z,0.00
2022-08-31T02:13:43.551Z,0.00
2022-08-31T02:14:43.532Z,0.00
2022-08-31T02:15:43.533Z,0.00
2022-08-31T02:16:43.578Z,0.00
2022-08-31T02:17:43.542Z,0.00
2022-08-31T02:18:43.510Z,0.00
2022-08-31T02:19:43.502Z,0.00
2022-08-31T02:20:43.501Z,0.00
2022-08-31T02:21:43.487Z,0.00
2022-08-31T02:22:43.506Z,0.00
2022-08-31T02:23:43.482Z,0.00
2022-08-31T02:24:43.471Z,0.00
2022-08-31T02:25:43.450Z,0.00
2022-08-31T02:26:43.448Z,0.00
2022-08-31T02:27:43.469Z,0.00
2022-08-31T02:28:43.431Z,0.00
2022-08-31T02:29:43.423Z,0.00
2022-08-31T02:30:43.426Z,0.00
2022-08-31T02:31:43.484Z,0.00
2022-08-31T02:32:43.432Z,0.00
2022-08-31T02:33:43.402Z,0.00
2022-08-31T02:34:43.409Z,0.00
2022-08-31T02:35:43.378Z,0.00
2022-08-31T02:36:43.370Z,0.00
2022-08-31T02:37:43.394Z,0.00
2022-08-31T02:38:43.356Z,0.00
2022-08-31T02:39:43.396Z,0.00
2022-08-31T02:40:43.430Z,0.00
2022-08-31T02:41:43.340Z,0.00
2022-08-31T02:42:52.828Z,0.00
2022-08-31T02:43:44.312Z,0.00
2022-08-31T02:44:43.307Z,0.00
2022-08-31T02:45:43.296Z,0.00
2022-08-31T02:46:43.397Z,0.00
2022-08-31T02:47:43.281Z,0.00
2022-08-31T02:48:43.299Z,0.00
2022-08-31T02:49:43.260Z,0.00
2022-08-31T02:50:43.261Z,0.00
2022-08-31T02:51:43.244Z,0.00
2022-08-31T02:52:43.228Z,0.00
2022-08-31T02:53:44.258Z,0.00
2022-08-31T02:54:43.225Z,0.00
2022-08-31T02:55:43.217Z,0.00
2022-08-31T02:56:43.207Z,0.00
2022-08-31T02:57:43.202Z,0.00
2022-08-31T02:58:43.222Z,0.00
2022-08-31T02:59:43.200Z,0.00
2022-08-31T03:00:43.243Z,0.00
2022-08-31T03:01:43.256Z,0.00
2022-08-31T03:02:43.193Z,0.00
2022-08-31T03:03:46.234Z,0.00
2022-08-31T03:04:44.146Z,0.00
2022-08-31T03:05:43.132Z,0.00
2022-08-31T03:06:43.131Z,0.00
2022-08-31T03:07:43.120Z,0.00
2022-08-31T03:08:43.136Z,0.00
2022-08-31T03:09:43.102Z,0.00
2022-08-31T03:10:43.097Z,0.00
2022-08-31T03:11:43.090Z,0.00
2022-08-31T03:12:43.078Z,0.00
2022-08-31T03:13:43.101Z,0.00
2022-08-31T03:14:43.067Z,0.00
2022-08-31T03:15:43.113Z,0.00
2022-08-31T03:16:43.053Z,0.00
2022-08-31T03:17:43.042Z,0.00
2022-08-31T03:18:43.060Z,0.00
2022-08-31T03:19:43.034Z,0.00
2022-08-31T03:20:43.017Z,0.00
2022-08-31T03:21:43.014Z,0.00
2022-08-31T03:22:45.692Z,0.00
2022-08-31T03:23:43.019Z,0.00
2022-08-31T03:24:42.990Z,0.00
2022-08-31T03:25:42.988Z,0.00
2022-08-31T03:26:42.977Z,0.00
2022-08-31T03:27:42.970Z,0.00
2022-08-31T03:28:42.999Z,0.00
2022-08-31T03:29:42.961Z,0.00
2022-08-31T03:30:42.988Z,0.00
2022-08-31T03:31:42.931Z,0.00
2022-08-31T03:32:42.933Z,0.00
2022-08-31T03:33:42.946Z,0.00
2022-08-31T03:34:42.916Z,0.00
2022-08-31T03:35:42.901Z,0.00
2022-08-31T03:36:42.899Z,0.00
2022-08-31T03:37:42.898Z,0.00
2022-08-31T03:38:42.914Z,0.00
2022-08-31T03:39:42.878Z,0.00
2022-08-31T03:40:42.917Z,0.00
2022-08-31T03:41:42.858Z,0.00
2022-08-31T03:42:42.859Z,0.00
2022-08-31T03:43:42.874Z,0.00
2022-08-31T03:44:42.842Z,0.00
2022-08-31T03:45:42.837Z,0.00
2022-08-31T03:46:42.862Z,0.00
2022-08-31T03:47:44.910Z,0.00
2022-08-31T03:48:42.837Z,0.00
2022-08-31T03:49:42.806Z,0.00
2022-08-31T03:50:42.807Z,0.00
2022-08-31T03:51:42.803Z,0.00
2022-08-31T03:52:42.784Z,0.00
2022-08-31T03:53:42.803Z,0.00
2022-08-31T03:54:42.775Z,0.00
2022-08-31T03:55:42.753Z,0.00
2022-08-31T03:56:42.771Z,0.00
2022-08-31T03:57:42.746Z,0.00
2022-08-31T03:58:42.760Z,0.00
2022-08-31T03:59:42.732Z,0.00
2022-08-31T04:00:42.726Z,0.00
2022-08-31T04:01:42.778Z,0.00
2022-08-31T04:02:42.736Z,0.00
2022-08-31T04:03:42.716Z,0.00
2022-08-31T04:04:42.714Z,0.00
2022-08-31T04:05:42.680Z,0.00
2022-08-31T04:06:42.670Z,0.00
2022-08-31T04:07:43.222Z,4.00
2022-08-31T04:08:42.683Z,0.00
2022-08-31T04:09:42.642Z,0.00
2022-08-31T04:10:42.637Z,0.00
2022-08-31T04:11:44.588Z,0.00
2022-08-31T04:12:42.621Z,4.00
2022-08-31T04:13:42.636Z,0.00
2022-08-31T04:14:42.608Z,0.00
2022-08-31T04:15:42.636Z,0.00
2022-08-31T04:16:42.592Z,4.00
2022-08-31T04:17:42.584Z,0.00
2022-08-31T04:18:42.600Z,4.00
2022-08-31T04:19:42.559Z,4.00
2022-08-31T04:20:43.561Z,4.00
2022-08-31T04:21:44.204Z,4.00
2022-08-31T04:22:42.541Z,4.00
2022-08-31T04:23:42.565Z,8.00
2022-08-31T04:24:42.556Z,8.00
2022-08-31T04:25:42.532Z,8.00
2022-08-31T04:26:42.513Z,8.00
2022-08-31T04:27:42.512Z,8.00
2022-08-31T04:28:42.531Z,12.00
2022-08-31T04:29:42.498Z,12.00
2022-08-31T04:30:42.538Z,12.00
2022-08-31T04:31:42.491Z,12.00
2022-08-31T04:32:42.466Z,16.00
2022-08-31T04:33:42.584Z,16.00
2022-08-31T04:34:42.462Z,16.00
2022-08-31T04:35:42.446Z,16.00
2022-08-31T04:36:42.436Z,20.00
2022-08-31T04:37:46.493Z,24.00
2022-08-31T04:38:43.451Z,24.00
2022-08-31T04:39:50.770Z,24.00
2022-08-31T04:40:43.475Z,28.00
2022-08-31T04:41:42.399Z,32.00
2022-08-31T04:42:42.393Z,32.00
2022-08-31T04:43:42.387Z,36.00
2022-08-31T04:44:42.410Z,40.00
2022-08-31T04:45:42.489Z,40.00
2022-08-31T04:46:42.366Z,44.00
2022-08-31T04:47:42.353Z,44.00
2022-08-31T04:48:42.347Z,48.00
2022-08-31T04:49:42.360Z,52.00
2022-08-31T04:50:43.093Z,56.00
2022-08-31T04:51:43.321Z,60.00
2022-08-31T04:52:42.315Z,68.00
2022-08-31T04:53:42.331Z,68.00
2022-08-31T04:54:42.311Z,76.00
2022-08-31T04:55:42.300Z,80.00
2022-08-31T04:56:42.288Z,88.00
2022-08-31T04:57:42.279Z,88.00
2022-08-31T04:58:42.299Z,96.00
2022-08-31T04:59:42.266Z,104.00
2022-08-31T05:00:42.266Z,112.00
2022-08-31T05:01:43.114Z,124.00
2022-08-31T05:02:42.285Z,140.00
2022-08-31T05:03:42.256Z,176.00
2022-08-31T05:04:42.223Z,208.00
2022-08-31T05:05:42.221Z,212.00
2022-08-31T05:06:42.213Z,196.00
2022-08-31T05:07:42.204Z,188.00
2022-08-31T05:08:42.226Z,184.00
2022-08-31T05:09:42.232Z,184.00
2022-08-31T05:10:42.211Z,188.00
2022-08-31T05:11:42.174Z,200.00
2022-08-31T05:12:42.166Z,212.00
2022-08-31T05:13:42.175Z,228.00
2022-08-31T05:14:42.151Z,256.00
2022-08-31T05:15:42.182Z,320.00
2022-08-31T05:16:42.130Z,376.00
2022-08-31T05:17:42.130Z,376.00
2022-08-31T05:18:42.151Z,360.00
2022-08-31T05:19:42.111Z,312.00
2022-08-31T05:20:42.161Z,296.00
2022-08-31T05:21:42.095Z,292.00
2022-08-31T05:22:42.084Z,292.00
2022-08-31T05:23:42.115Z,296.00
2022-08-31T05:24:42.075Z,304.00
2022-08-31T05:25:42.069Z,316.00
2022-08-31T05:26:42.342Z,328.00
2022-08-31T05:27:42.075Z,344.00
2022-08-31T05:28:42.079Z,356.00
2022-08-31T05:29:42.038Z,376.00
2022-08-31T05:30:42.078Z,392.00
2022-08-31T05:31:42.022Z,408.00
2022-08-31T05:32:42.008Z,424.00
2022-08-31T05:33:42.016Z,444.00
2022-08-31T05:34:42.020Z,460.00
2022-08-31T05:35:41.995Z,480.00
2022-08-31T05:36:42.075Z,500.00
2022-08-31T05:37:41.974Z,516.00
2022-08-31T05:38:41.964Z,540.00
2022-08-31T05:39:41.991Z,564.00
2022-08-31T05:40:42.023Z,584.00
2022-08-31T05:41:41.947Z,604.00
2022-08-31T05:42:41.933Z,620.00
2022-08-31T05:43:41.931Z,632.00
2022-08-31T05:44:41.944Z,644.00
2022-08-31T05:45:41.910Z,648.00
2022-08-31T05:46:42.002Z,652.00
2022-08-31T05:47:41.898Z,660.00
2022-08-31T05:48:41.894Z,664.00
2022-08-31T05:49:42.906Z,656.00
2022-08-31T05:50:41.873Z,672.00
2022-08-31T05:51:41.871Z,672.00
2022-08-31T05:52:41.852Z,668.00
2022-08-31T05:53:41.843Z,632.00
2022-08-31T05:54:41.861Z,632.00
2022-08-31T05:55:41.838Z,620.00
2022-08-31T05:56:41.825Z,604.00
2022-08-31T05:57:41.819Z,588.00
2022-08-31T05:58:41.818Z,580.00
2022-08-31T05:59:41.828Z,556.00
2022-08-31T06:00:41.795Z,540.00
2022-08-31T06:01:41.816Z,520.00
2022-08-31T06:02:41.781Z,508.00
2022-08-31T06:03:41.773Z,508.00
2022-08-31T06:04:41.834Z,496.00
2022-08-31T06:05:41.818Z,500.00
2022-08-31T06:06:41.746Z,504.00
2022-08-31T06:07:41.735Z,492.00
2022-08-31T06:08:41.732Z,500.00
2022-08-31T06:09:41.866Z,500.00
2022-08-31T06:10:41.718Z,492.00
2022-08-31T06:11:41.707Z,500.00
2022-08-31T06:12:41.708Z,500.00
2022-08-31T06:13:41.685Z,508.00
2022-08-31T06:14:44.759Z,508.00
2022-08-31T06:15:42.336Z,516.00
2022-08-31T06:16:41.757Z,524.00
2022-08-31T06:17:41.665Z,528.00
2022-08-31T06:18:41.651Z,528.00
2022-08-31T06:19:41.672Z,536.00
2022-08-31T06:20:41.642Z,552.00
2022-08-31T06:21:49.806Z,556.00
2022-08-31T06:22:42.635Z,560.00
2022-08-31T06:23:41.619Z,572.00
2022-08-31T06:24:41.627Z,588.00
2022-08-31T06:25:42.601Z,600.00
2022-08-31T06:26:41.601Z,616.00
2022-08-31T06:27:41.595Z,624.00
2022-08-31T06:28:41.577Z,628.00
2022-08-31T06:29:41.594Z,652.00
2022-08-31T06:30:54.923Z,652.00
2022-08-31T06:31:43.579Z,660.00
2022-08-31T06:32:41.548Z,676.00
2022-08-31T06:33:41.549Z,700.00
2022-08-31T06:34:41.557Z,688.00
2022-08-31T06:35:41.536Z,696.00
2022-08-31T06:36:41.520Z,688.00
2022-08-31T06:37:41.513Z,712.00
2022-08-31T06:38:41.509Z,724.00
2022-08-31T06:39:41.517Z,756.00
2022-08-31T06:40:41.520Z,764.00
2022-08-31T06:41:41.481Z,768.00
2022-08-31T06:42:41.478Z,760.00
2022-08-31T06:43:41.463Z,768.00
2022-08-31T06:44:41.479Z,788.00
2022-08-31T06:45:41.458Z,824.00
2022-08-31T06:46:41.505Z,844.00
2022-08-31T06:47:41.440Z,848.00
2022-08-31T06:48:41.432Z,864.00
2022-08-31T06:49:41.445Z,852.00
2022-08-31T06:50:41.417Z,860.00
2022-08-31T06:51:41.411Z,880.00
2022-08-31T06:52:41.401Z,904.00
2022-08-31T06:53:41.411Z,920.00
2022-08-31T06:54:41.405Z,932.00
2022-08-31T06:55:41.373Z,912.00
2022-08-31T06:56:41.361Z,928.00
2022-08-31T06:57:41.359Z,936.00
2022-08-31T06:58:41.357Z,944.00
2022-08-31T06:59:41.365Z,932.00
2022-08-31T07:00:41.337Z,948.00
2022-08-31T07:01:41.421Z,956.00
2022-08-31T07:02:41.414Z,972.00
2022-08-31T07:03:41.334Z,976.00
2022-08-31T07:04:41.330Z,1008.00
2022-08-31T07:05:41.294Z,992.00
2022-08-31T07:06:41.290Z,964.00
2022-08-31T07:07:41.288Z,944.00
2022-08-31T07:08:41.273Z,908.00
2022-08-31T07:09:41.313Z,888.00
2022-08-31T07:10:41.262Z,876.00
2022-08-31T07:11:44.630Z,900.00
2022-08-31T07:12:42.244Z,928.00
2022-08-31T07:13:41.234Z,944.00
2022-08-31T07:14:41.264Z,944.00
2022-08-31T07:15:41.227Z,964.00
2022-08-31T07:16:41.311Z,968.00
2022-08-31T07:17:41.209Z,956.00
2022-08-31T07:18:41.201Z,948.00
2022-08-31T07:19:41.409Z,928.00
2022-08-31T07:20:41.228Z,928.00
2022-08-31T07:21:41.261Z,944.00
2022-08-31T07:22:41.172Z,968.00
2022-08-31T07:23:41.157Z,972.00
2022-08-31T07:24:41.178Z,984.00
2022-08-31T07:25:41.151Z,956.00
2022-08-31T07:26:41.138Z,944.00
2022-08-31T07:27:41.130Z,960.00
2022-08-31T07:28:41.122Z,1000.00
2022-08-31T07:29:41.140Z,988.00
2022-08-31T07:30:41.155Z,1008.00
2022-08-31T07:31:41.095Z,1028.00
2022-08-31T07:32:41.094Z,1076.00
2022-08-31T07:33:41.082Z,1152.00
2022-08-31T07:34:41.100Z,1168.00
2022-08-31T07:35:41.066Z,1188.00
2022-08-31T07:36:41.059Z,1168.00
2022-08-31T07:37:41.049Z,1156.00
2022-08-31T07:38:41.038Z,1216.00
2022-08-31T07:39:41.058Z,1288.00
2022-08-31T07:40:41.159Z,1300.00
2022-08-31T07:41:41.020Z,1320.00
2022-08-31T07:42:41.016Z,1328.00
2022-08-31T07:43:40.999Z,1344.00
2022-08-31T07:44:41.029Z,1328.00
2022-08-31T07:45:41.026Z,1340.00
2022-08-31T07:46:40.976Z,1344.00
2022-08-31T07:47:40.964Z,1276.00
2022-08-31T07:48:40.961Z,1252.00
2022-08-31T07:49:40.974Z,1244.00
2022-08-31T07:50:40.942Z,1204.00
2022-08-31T07:51:40.934Z,1176.00
2022-08-31T07:52:40.971Z,1168.00
2022-08-31T07:53:40.927Z,1168.00
2022-08-31T07:54:40.926Z,1192.00
2022-08-31T07:55:40.930Z,1212.00
2022-08-31T07:56:40.903Z,1224.00
2022-08-31T07:57:40.899Z,1260.00
2022-08-31T07:58:40.882Z,1292.00
2022-08-31T07:59:40.874Z,1348.00
2022-08-31T08:00:40.886Z,1368.00
2022-08-31T08:01:40.922Z,1364.00
2022-08-31T08:02:40.871Z,1416.00
2022-08-31T08:03:40.851Z,1420.00
2022-08-31T08:04:40.833Z,1372.00
2022-08-31T08:05:40.893Z,1400.00
2022-08-31T08:06:40.819Z,1484.00
2022-08-31T08:07:40.823Z,1548.00
2022-08-31T08:08:40.808Z,1556.00
2022-08-31T08:09:40.795Z,1584.00
2022-08-31T08:10:40.813Z,1608.00
2022-08-31T08:11:40.771Z,1568.00
2022-08-31T08:12:41.776Z,1500.00
2022-08-31T08:13:40.767Z,1476.00
2022-08-31T08:14:40.748Z,1476.00
2022-08-31T08:15:40.785Z,1520.00
2022-08-31T08:16:40.779Z,1516.00
2022-08-31T08:17:40.733Z,1484.00
2022-08-31T08:18:40.725Z,1504.00
2022-08-31T08:19:40.779Z,1504.00
2022-08-31T08:20:40.746Z,1536.00
2022-08-31T08:21:40.711Z,1608.00
2022-08-31T08:22:54.216Z,1632.00
2022-08-31T08:23:42.695Z,1712.00
2022-08-31T08:24:40.852Z,1724.00
2022-08-31T08:25:40.695Z,1744.00
2022-08-31T08:26:40.669Z,1780.00
2022-08-31T08:27:40.657Z,1816.00
2022-08-31T08:28:41.286Z,1836.00
2022-08-31T08:29:40.649Z,1876.00
2022-08-31T08:30:40.657Z,1904.00
2022-08-31T08:31:40.737Z,1984.00
2022-08-31T08:32:40.622Z,2004.00
2022-08-31T08:33:40.683Z,2036.00
2022-08-31T08:34:40.606Z,2032.00
2022-08-31T08:35:40.618Z,2064.00
2022-08-31T08:36:40.591Z,2152.00
2022-08-31T08:37:57.211Z,2188.00
2022-08-31T08:38:42.572Z,2248.00
2022-08-31T08:39:40.563Z,2308.00
2022-08-31T08:40:40.632Z,2348.00
2022-08-31T08:41:40.548Z,2536.00
2022-08-31T08:42:40.546Z,2584.00
2022-08-31T08:43:40.555Z,2612.00
2022-08-31T08:44:40.524Z,2660.00
2022-08-31T08:45:40.586Z,2724.00
2022-08-31T08:46:40.667Z,2720.00
2022-08-31T08:47:40.522Z,2752.00
2022-08-31T08:48:40.488Z,2676.00
2022-08-31T08:49:40.492Z,2568.00
2022-08-31T08:50:40.506Z,2372.00
2022-08-31T08:51:40.484Z,2452.00
2022-08-31T08:52:40.462Z,2364.00
2022-08-31T08:53:40.459Z,2488.00
2022-08-31T08:54:40.448Z,2472.00
2022-08-31T08:55:40.481Z,2428.00
2022-08-31T08:56:40.429Z,2452.00
2022-08-31T08:57:40.425Z,2284.00
2022-08-31T08:58:40.416Z,2480.00
2022-08-31T08:59:40.408Z,2332.00
2022-08-31T09:00:40.437Z,2600.00
2022-08-31T09:01:40.465Z,2516.00
2022-08-31T09:02:40.519Z,2512.00
2022-08-31T09:03:40.409Z,2244.00
2022-08-31T09:04:40.377Z,2216.00
2022-08-31T09:05:40.446Z,2404.00
2022-08-31T09:06:46.010Z,2124.00
2022-08-31T09:07:41.339Z,2188.00
2022-08-31T09:08:40.334Z,2304.00
2022-08-31T09:09:40.340Z,2428.00
2022-08-31T09:10:40.452Z,2564.00
2022-08-31T09:11:40.308Z,2592.00
2022-08-31T09:12:40.300Z,2444.00
2022-08-31T09:13:40.302Z,2540.00
2022-08-31T09:14:40.313Z,2496.00
2022-08-31T09:15:40.496Z,2488.00
2022-08-31T09:16:40.271Z,2484.00
2022-08-31T09:17:40.267Z,2396.00
2022-08-31T09:18:40.255Z,2392.00
2022-08-31T09:19:40.258Z,2428.00
2022-08-31T09:20:40.443Z,2424.00
2022-08-31T09:21:40.248Z,2464.00
2022-08-31T09:22:40.225Z,2460.00
2022-08-31T09:23:40.214Z,2420.00
2022-08-31T09:24:40.206Z,2456.00
2022-08-31T09:25:40.430Z,2460.00
2022-08-31T09:26:40.190Z,2484.00
2022-08-31T09:27:40.193Z,2504.00
2022-08-31T09:28:40.191Z,2540.00
2022-08-31T09:29:40.172Z,2552.00
2022-08-31T09:30:40.453Z,2524.00
2022-08-31T09:31:40.268Z,2548.00
2022-08-31T09:32:40.148Z,2572.00
2022-08-31T09:33:40.135Z,2520.00
2022-08-31T09:34:40.132Z,2592.00
2022-08-31T09:35:40.151Z,2596.00
2022-08-31T09:36:40.117Z,2604.00
2022-08-31T09:37:40.108Z,2532.00
2022-08-31T09:38:40.099Z,2536.00
2022-08-31T09:39:40.090Z,2428.00
2022-08-31T09:40:40.193Z,2608.00
2022-08-31T09:41:40.074Z,2628.00
2022-08-31T09:42:40.074Z,2620.00
2022-08-31T09:43:41.196Z,2624.00
2022-08-31T09:44:40.052Z,2648.00
2022-08-31T09:45:42.305Z,2520.00
2022-08-31T09:46:41.040Z,2480.00
2022-08-31T09:47:40.035Z,2728.00
2022-08-31T09:48:40.030Z,2740.00
2022-08-31T09:49:40.886Z,2712.00
2022-08-31T09:50:40.036Z,2792.00
2022-08-31T09:51:39.993Z,2716.00
2022-08-31T09:52:40.992Z,2572.00
2022-08-31T09:53:39.991Z,2700.00
2022-08-31T09:54:44.417Z,2728.00
2022-08-31T09:55:41.997Z,2736.00
2022-08-31T09:56:39.961Z,2692.00
2022-08-31T09:57:39.955Z,2652.00
2022-08-31T09:58:39.952Z,2400.00
2022-08-31T09:59:39.937Z,2376.00
2022-08-31T10:00:39.935Z,2392.00
2022-08-31T10:01:39.997Z,2420.00
2022-08-31T10:02:39.923Z,2676.00
2022-08-31T10:03:39.902Z,2424.00
2022-08-31T10:04:39.949Z,2428.00
2022-08-31T10:05:39.890Z,2484.00
2022-08-31T10:06:39.919Z,2716.00
2022-08-31T10:07:39.881Z,2696.00
2022-08-31T10:08:39.880Z,2944.00
2022-08-31T10:09:39.862Z,2964.00
2022-08-31T10:10:39.897Z,2820.00
2022-08-31T10:11:39.855Z,2804.00
2022-08-31T10:12:39.845Z,2820.00
2022-08-31T10:13:39.840Z,2464.00
2022-08-31T10:14:39.826Z,2424.00
2022-08-31T10:15:39.894Z,2776.00
2022-08-31T10:16:39.805Z,2616.00
2022-08-31T10:17:39.806Z,2908.00
2022-08-31T10:18:39.834Z,2984.00
2022-08-31T10:19:39.805Z,3104.00
2022-08-31T10:20:39.837Z,2684.00
2022-08-31T10:21:39.821Z,3132.00
2022-08-31T10:22:39.784Z,2968.00
2022-08-31T10:23:39.759Z,2952.00
2022-08-31T10:24:39.758Z,3252.00
2022-08-31T10:25:39.775Z,3388.00
2022-08-31T10:26:39.735Z,3440.00
2022-08-31T10:27:39.732Z,3468.00
2022-08-31T10:28:39.725Z,3548.00
2022-08-31T10:29:39.716Z,3592.00
2022-08-31T10:30:39.834Z,3656.00
2022-08-31T10:31:39.697Z,3560.00
2022-08-31T10:32:39.699Z,3404.00
2022-08-31T10:33:39.683Z,3500.00
2022-08-31T10:34:39.672Z,3536.00
2022-08-31T10:35:39.705Z,3004.00
2022-08-31T10:36:39.699Z,3276.00
2022-08-31T10:37:39.647Z,3456.00
2022-08-31T10:38:39.640Z,3240.00
2022-08-31T10:39:39.631Z,2704.00
2022-08-31T10:40:39.736Z,2556.00
2022-08-31T10:41:39.635Z,2400.00
2022-08-31T10:42:39.606Z,2336.00
2022-08-31T10:43:40.602Z,2492.00
2022-08-31T10:44:39.607Z,2416.00
2022-08-31T10:45:39.585Z,2652.00
2022-08-31T10:46:39.674Z,2268.00
2022-08-31T10:47:39.566Z,2220.00
2022-08-31T10:48:39.560Z,2440.00
2022-08-31T10:49:39.554Z,2148.00
2022-08-31T10:50:39.607Z,2116.00
2022-08-31T10:51:39.548Z,2232.00
2022-08-31T10:52:39.545Z,2156.00
2022-08-31T10:53:40.092Z,2260.00
2022-08-31T10:54:39.514Z,2372.00
2022-08-31T10:55:39.625Z,2608.00
2022-08-31T10:56:39.502Z,2596.00
2022-08-31T10:57:39.487Z,2304.00
2022-08-31T10:58:39.487Z,2424.00
2022-08-31T10:59:39.481Z,2612.00
2022-08-31T11:00:39.494Z,2592.00
2022-08-31T11:01:39.517Z,2300.00
2022-08-31T11:02:39.460Z,2396.00
2022-08-31T11:03:39.444Z,2304.00
2022-08-31T11:04:39.530Z,2232.00
2022-08-31T11:05:39.520Z,2472.00
2022-08-31T11:06:39.416Z,2604.00
2022-08-31T11:07:39.421Z,2692.00
2022-08-31T11:08:39.403Z,2568.00
2022-08-31T11:09:39.397Z,2328.00
2022-08-31T11:10:39.678Z,2308.00
2022-08-31T11:11:43.480Z,2284.00
2022-08-31T11:12:39.373Z,2148.00
2022-08-31T11:13:39.362Z,2084.00
2022-08-31T11:14:39.362Z,2004.00
2022-08-31T11:15:39.407Z,1968.00
2022-08-31T11:16:39.347Z,2108.00
2022-08-31T11:17:39.341Z,2128.00
2022-08-31T11:18:39.330Z,2284.00
2022-08-31T11:19:39.320Z,2264.00
2022-08-31T11:20:39.484Z,2156.00
2022-08-31T11:21:39.298Z,2108.00
2022-08-31T11:22:39.296Z,2168.00
2022-08-31T11:23:42.177Z,2148.00
2022-08-31T11:24:40.280Z,2120.00
2022-08-31T11:25:39.711Z,2024.00
2022-08-31T11:26:39.266Z,2032.00
2022-08-31T11:27:39.262Z,1948.00
2022-08-31T11:28:39.252Z,1936.00
2022-08-31T11:29:39.238Z,2004.00
2022-08-31T11:30:42.036Z,1988.00
2022-08-31T11:31:40.292Z,2008.00
2022-08-31T11:32:39.254Z,2024.00
2022-08-31T11:33:47.383Z,2012.00
2022-08-31T11:34:40.217Z,1992.00
2022-08-31T11:35:42.183Z,1976.00
2022-08-31T11:36:39.189Z,1984.00
2022-08-31T11:37:39.200Z,1960.00
2022-08-31T11:38:39.185Z,1912.00
2022-08-31T11:39:39.172Z,1924.00
2022-08-31T11:40:39.275Z,1952.00
2022-08-31T11:41:39.167Z,1996.00
2022-08-31T11:42:39.144Z,1976.00
2022-08-31T11:43:39.130Z,1984.00
2022-08-31T11:44:39.124Z,2004.00
2022-08-31T11:45:39.178Z,2012.00
2022-08-31T11:46:40.052Z,2004.00
2022-08-31T11:47:39.115Z,1992.00
2022-08-31T11:48:39.097Z,1960.00
2022-08-31T11:49:39.086Z,1928.00
2022-08-31T11:50:39.109Z,1916.00
2022-08-31T11:51:41.390Z,1944.00
2022-08-31T11:52:40.066Z,1960.00
2022-08-31T11:53:39.057Z,1980.00
2022-08-31T11:54:39.059Z,1980.00
2022-08-31T11:55:40.075Z,1980.00
2022-08-31T11:58:36.613Z,1968.00
2022-08-31T11:59:36.636Z,1932.00
2022-08-31T12:00:36.648Z,1888.00
2022-08-31T12:01:36.612Z,1876.00
2022-08-31T12:02:36.649Z,1880.00
2022-08-31T12:03:36.596Z,1884.00
2022-08-31T12:04:36.604Z,1852.00
2022-08-31T12:05:36.709Z,1828.00
2022-08-31T12:06:37.711Z,1816.00
2022-08-31T12:07:37.708Z,1824.00
2022-08-31T12:08:37.699Z,1804.00
2022-08-31T12:09:37.741Z,1788.00
2022-08-31T12:10:37.745Z,1760.00
2022-08-31T12:11:37.682Z,1744.00
2022-08-31T12:12:37.699Z,1756.00
2022-08-31T12:13:37.659Z,1768.00
2022-08-31T12:14:37.672Z,1792.00
2022-08-31T12:15:37.687Z,1816.00
2022-08-31T12:16:37.661Z,1840.00
2022-08-31T12:17:37.632Z,1844.00
2022-08-31T12:18:37.628Z,1844.00
2022-08-31T12:19:37.625Z,1840.00
2022-08-31T12:20:37.639Z,1836.00
2022-08-31T12:21:37.599Z,1828.00
2022-08-31T12:22:37.588Z,1828.00
2022-08-31T12:23:37.586Z,1812.00
2022-08-31T12:24:37.581Z,1788.00
2022-08-31T12:25:37.599Z,1760.00
2022-08-31T12:26:41.803Z,1744.00
2022-08-31T12:27:38.566Z,1744.00
2022-08-31T12:28:37.547Z,1740.00
2022-08-31T12:29:37.542Z,1732.00
2022-08-31T12:30:37.570Z,1716.00
2022-08-31T12:31:37.590Z,1708.00
2022-08-31T12:32:37.529Z,1692.00
2022-08-31T12:33:37.514Z,1668.00
2022-08-31T12:34:37.518Z,1640.00
2022-08-31T12:35:37.523Z,1624.00
2022-08-31T12:36:37.491Z,1616.00
2022-08-31T12:37:37.475Z,1608.00
2022-08-31T12:38:37.474Z,1596.00